createdAt,value
2018-06-05T00:02:14.609Z,35.30
2018-06-05T00:04:41.901Z,35.37
2018-06-05T00:07:09.210Z,37.00
2018-06-05T00:09:36.493Z,35.27
2018-06-05T00:12:03.815Z,36.37
2018-06-05T00:14:31.082Z,34.70
2018-06-05T00:16:58.381Z,37.30
2018-06-05T00:19:25.653Z,37.93
2018-06-05T00:21:52.931Z,37.47
2018-06-05T00:24:20.180Z,37.03
2018-06-05T00:26:47.485Z,38.87
2018-06-05T00:29:14.778Z,40.03
2018-06-05T00:31:42.079Z,38.87
2018-06-05T00:34:09.339Z,38.07
2018-06-05T00:36:36.633Z,37.70
2018-06-05T00:39:05.372Z,36.93
2018-06-05T00:41:32.652Z,36.30
2018-06-05T00:43:59.946Z,37.87
2018-06-05T00:46:27.237Z,37.20
2018-06-05T00:48:54.513Z,36.47
2018-06-05T00:51:27.621Z,36.17
2018-06-05T00:53:54.888Z,37.90
2018-06-05T00:56:22.187Z,36.03
2018-06-05T00:58:49.460Z,36.20
2018-06-05T01:01:16.796Z,35.40
2018-06-05T01:03:44.076Z,36.87
2018-06-05T01:06:11.380Z,36.67
2018-06-05T01:08:38.656Z,37.97
2018-06-05T01:11:05.937Z,37.50
2018-06-05T01:13:33.448Z,36.67
2018-06-05T01:16:00.743Z,36.33
2018-06-05T01:18:28.009Z,38.10
2018-06-05T01:20:55.314Z,37.60
2018-06-05T01:23:23.456Z,37.30
2018-06-05T01:25:50.737Z,38.27
2018-06-05T01:28:18.239Z,35.93
2018-06-05T01:30:45.548Z,38.63
2018-06-05T01:33:12.823Z,38.13
2018-06-05T01:35:40.088Z,38.17
2018-06-05T01:38:07.361Z,36.57
2018-06-05T01:40:34.665Z,38.20
2018-06-05T01:43:01.989Z,39.57
2018-06-05T01:45:29.257Z,38.03
2018-06-05T01:47:56.539Z,38.83
2018-06-05T01:50:23.832Z,38.33
2018-06-05T01:52:51.145Z,41.33
2018-06-05T01:55:18.429Z,39.47
2018-06-05T01:57:45.726Z,40.60
2018-06-05T02:00:12.988Z,41.70
2018-06-05T02:02:40.276Z,40.90
2018-06-05T02:05:07.575Z,42.43
2018-06-05T02:07:34.861Z,44.40
2018-06-05T02:10:02.138Z,41.57
2018-06-05T02:12:29.427Z,41.50
2018-06-05T02:14:56.691Z,40.87
2018-06-05T02:17:24.268Z,40.67
2018-06-05T02:19:51.540Z,42.30
2018-06-05T02:22:18.841Z,42.10
2018-06-05T02:24:46.124Z,43.30
2018-06-05T02:27:13.407Z,40.50
2018-06-05T02:29:40.689Z,40.63
2018-06-05T02:32:07.973Z,42.80
2018-06-05T02:34:35.237Z,42.23
2018-06-05T02:37:02.524Z,42.33
2018-06-05T02:39:29.842Z,42.53
2018-06-05T02:41:57.131Z,42.07
2018-06-05T02:44:24.419Z,42.10
2018-06-05T02:46:51.733Z,43.83
2018-06-05T02:49:19.004Z,44.53
2018-06-05T02:51:46.275Z,44.30
2018-06-05T02:54:13.554Z,42.97
2018-06-05T02:56:40.837Z,44.60
2018-06-05T02:59:08.128Z,43.43
2018-06-05T03:01:35.482Z,46.17
2018-06-05T03:04:02.802Z,44.83
2018-06-05T03:06:30.916Z,43.23
2018-06-05T03:08:58.184Z,42.57
2018-06-05T03:11:25.459Z,41.57
2018-06-05T03:13:52.761Z,41.13
2018-06-05T03:16:20.031Z,42.70
2018-06-05T03:18:47.317Z,38.97
2018-06-05T03:21:14.584Z,40.67
2018-06-05T03:23:42.111Z,40.50
2018-06-05T03:26:09.384Z,40.27
2018-06-05T03:28:36.655Z,42.53
2018-06-05T03:31:03.934Z,40.40
2018-06-05T03:33:31.345Z,41.10
2018-06-05T03:35:58.601Z,41.07
2018-06-05T03:38:25.904Z,42.03
2018-06-05T03:40:53.184Z,43.37
2018-06-05T03:43:20.512Z,41.53
2018-06-05T03:45:47.799Z,40.00
2018-06-05T03:48:15.092Z,39.07
2018-06-05T03:50:42.406Z,41.47
2018-06-05T03:53:09.697Z,39.00
2018-06-05T03:55:36.989Z,40.10
2018-06-05T03:58:04.428Z,40.30
2018-06-05T04:00:31.722Z,40.00
2018-06-05T04:02:59.012Z,40.23
2018-06-05T04:05:26.270Z,41.50
2018-06-05T04:07:53.568Z,41.20
2018-06-05T04:10:21.680Z,41.93
2018-06-05T04:12:48.964Z,43.53
2018-06-05T04:15:16.236Z,41.33
2018-06-05T04:17:43.492Z,40.47
2018-06-05T04:20:10.787Z,43.33
2018-06-05T04:22:38.153Z,43.57
2018-06-05T04:25:05.444Z,40.93
2018-06-05T04:27:32.721Z,41.03
2018-06-05T04:30:00.029Z,42.83
2018-06-05T04:32:27.401Z,42.17
2018-06-05T04:34:54.723Z,41.17
2018-06-05T04:37:21.992Z,43.40
2018-06-05T04:39:49.285Z,43.50
2018-06-05T04:42:16.645Z,46.60
2018-06-05T04:44:43.937Z,43.30
2018-06-05T04:47:11.196Z,45.33
2018-06-05T04:49:39.276Z,46.73
2018-06-05T04:52:06.545Z,46.47
2018-06-05T04:54:33.832Z,47.50
2018-06-05T04:57:01.112Z,47.37
2018-06-05T04:59:28.401Z,45.10
2018-06-05T05:01:55.715Z,44.97
2018-06-05T05:04:23.025Z,46.03
2018-06-05T05:06:50.320Z,43.97
2018-06-05T05:09:19.531Z,40.73
2018-06-05T05:11:46.799Z,41.87
2018-06-05T05:14:14.115Z,41.30
2018-06-05T05:16:41.493Z,42.87
2018-06-05T05:19:08.797Z,41.13
2018-06-05T05:21:36.185Z,38.77
2018-06-05T05:24:14.339Z,41.30
2018-06-05T05:26:41.636Z,40.37
2018-06-05T05:29:09.272Z,39.40
2018-06-05T05:31:36.592Z,39.63
2018-06-05T05:34:03.888Z,40.70
2018-06-05T05:36:31.163Z,39.53
2018-06-05T05:38:58.559Z,41.93
2018-06-05T05:41:25.848Z,42.43
2018-06-05T05:43:53.138Z,41.50
2018-06-05T05:46:20.432Z,42.57
2018-06-05T05:48:47.689Z,43.33
2018-06-05T05:51:15.360Z,43.27
2018-06-05T05:53:42.965Z,41.97
2018-06-05T05:56:10.468Z,44.57
2018-06-05T05:58:37.843Z,42.50
2018-06-05T06:01:05.212Z,43.37
2018-06-05T06:03:32.601Z,46.53
2018-06-05T06:05:59.947Z,49.50
2018-06-05T06:08:27.273Z,49.13
2018-06-05T06:10:54.585Z,50.03
2018-06-05T06:13:21.917Z,50.23
2018-06-05T06:15:49.205Z,49.00
2018-06-05T06:18:16.476Z,48.70
2018-06-05T06:20:43.850Z,48.57
2018-06-05T06:23:11.117Z,48.33
2018-06-05T06:25:38.516Z,47.47
2018-06-05T06:28:05.788Z,46.27
2018-06-05T06:30:33.086Z,47.50
2018-06-05T06:33:00.369Z,44.37
2018-06-05T06:35:27.648Z,43.40
2018-06-05T06:37:54.929Z,42.53
2018-06-05T06:40:22.209Z,41.90
2018-06-05T06:42:49.533Z,40.70
2018-06-05T06:45:16.824Z,40.33
2018-06-05T06:47:44.749Z,40.80
2018-06-05T06:50:12.041Z,40.43
2018-06-05T06:52:39.303Z,38.20
2018-06-05T06:55:06.621Z,38.23
2018-06-05T06:57:33.898Z,40.17
2018-06-05T07:00:01.173Z,42.20
2018-06-05T07:02:28.460Z,40.43
2018-06-05T07:04:55.724Z,40.10
2018-06-05T07:07:23.019Z,39.47
2018-06-05T07:09:50.284Z,39.30
2018-06-05T07:12:17.626Z,38.77
2018-06-05T07:14:44.897Z,38.60
2018-06-05T07:17:12.192Z,38.20
2018-06-05T07:19:39.513Z,37.13
2018-06-05T07:22:06.894Z,36.07
2018-06-05T07:24:34.176Z,38.90
2018-06-05T07:27:01.485Z,39.60
2018-06-05T07:29:28.752Z,37.40
2018-06-05T07:31:56.453Z,37.27
2018-06-05T07:34:23.740Z,39.60
2018-06-05T07:36:51.028Z,35.90
2018-06-05T07:39:18.292Z,36.93
2018-06-05T07:41:45.571Z,35.47
2018-06-05T07:44:12.890Z,33.30
2018-06-05T07:46:40.184Z,38.43
2018-06-05T07:49:07.444Z,37.70
2018-06-05T07:51:34.733Z,34.90
2018-06-05T07:54:02.007Z,35.00
2018-06-05T07:56:29.288Z,35.80
2018-06-05T07:58:56.600Z,35.53
2018-06-05T08:01:23.896Z,33.73
2018-06-05T08:03:51.536Z,33.40
2018-06-05T08:06:18.849Z,33.67
2018-06-05T08:08:46.137Z,33.77
2018-06-05T08:11:13.420Z,33.50
2018-06-05T08:13:40.695Z,33.90
2018-06-05T08:16:07.985Z,32.30
2018-06-05T08:18:35.254Z,33.10
2018-06-05T08:21:02.525Z,33.23
2018-06-05T08:23:30.049Z,34.13
2018-06-05T08:25:57.321Z,33.17
2018-06-05T08:28:24.608Z,32.37
2018-06-05T08:30:51.891Z,33.80
2018-06-05T08:33:19.208Z,33.30
2018-06-05T08:35:46.472Z,32.50
2018-06-05T08:38:13.798Z,32.93
2018-06-05T08:40:41.080Z,37.50
2018-06-05T08:43:08.408Z,38.63
2018-06-05T08:45:35.690Z,37.17
2018-06-05T08:48:02.977Z,37.43
2018-06-05T08:50:30.248Z,38.00
2018-06-05T08:52:57.532Z,36.13
2018-06-05T08:55:24.801Z,36.70
2018-06-05T08:57:52.096Z,36.20
2018-06-05T09:00:19.399Z,34.57
2018-06-05T09:02:46.720Z,34.10
2018-06-05T09:05:14.068Z,34.00
2018-06-05T09:07:41.340Z,34.63
2018-06-05T09:10:08.995Z,35.60
2018-06-05T09:12:36.292Z,36.87
2018-06-05T09:15:03.617Z,34.47
2018-06-05T09:17:30.932Z,35.00
2018-06-05T09:19:58.207Z,32.80
2018-06-05T09:22:25.869Z,33.47
2018-06-05T09:24:53.400Z,31.40
2018-06-05T09:27:21.001Z,30.43
2018-06-05T09:29:48.591Z,31.07
2018-06-05T09:32:16.173Z,29.63
2018-06-05T09:34:43.790Z,30.70
2018-06-05T09:37:11.154Z,32.63
2018-06-05T09:39:38.478Z,34.47
2018-06-05T09:42:06.858Z,34.53
2018-06-05T09:44:34.606Z,33.03
2018-06-05T09:47:02.247Z,30.73
2018-06-05T09:49:29.877Z,31.37
2018-06-05T09:51:57.456Z,30.83
2018-06-05T09:54:25.148Z,29.83
2018-06-05T09:56:52.925Z,33.37
2018-06-05T09:59:20.238Z,29.60
2018-06-05T10:01:47.523Z,28.77
2018-06-05T10:04:14.817Z,31.73
2018-06-05T10:06:56.042Z,30.00
2018-06-05T10:09:23.353Z,32.40
2018-06-05T10:11:50.632Z,31.30
2018-06-05T10:14:18.604Z,31.00
2018-06-05T10:16:46.416Z,26.60
2018-06-05T10:19:14.272Z,24.67
2018-06-05T10:21:41.993Z,27.90
2018-06-05T10:24:09.727Z,30.57
2018-06-05T10:26:37.576Z,31.93
2018-06-05T10:29:05.213Z,29.07
2018-06-05T10:31:32.498Z,26.17
2018-06-05T10:33:59.767Z,27.40
2018-06-05T10:36:27.545Z,28.07
2018-06-05T10:38:55.497Z,28.43
2018-06-05T10:41:23.207Z,28.47
2018-06-05T10:43:56.171Z,28.37
2018-06-05T10:46:23.755Z,27.23
2018-06-05T10:48:51.409Z,28.20
2018-06-05T10:51:19.013Z,26.70
2018-06-05T10:53:46.409Z,26.63
2018-06-05T10:56:13.815Z,27.13
2018-06-05T10:58:44.326Z,25.80
2018-06-05T11:01:13.147Z,26.97
2018-06-05T11:03:40.714Z,28.20
2018-06-05T11:06:08.385Z,26.23
2018-06-05T11:08:36.126Z,29.43
2018-06-05T11:11:03.829Z,28.83
2018-06-05T11:13:31.828Z,28.73
2018-06-05T11:15:59.244Z,27.27
2018-06-05T11:18:26.628Z,27.33
2018-06-05T11:20:54.044Z,25.70
2018-06-05T11:23:22.025Z,27.07
2018-06-05T11:25:51.952Z,27.50
2018-06-05T11:28:19.587Z,27.77
2018-06-05T11:30:49.017Z,27.20
2018-06-05T11:33:16.907Z,26.60
2018-06-05T11:35:45.173Z,26.97
2018-06-05T11:38:12.861Z,28.03
2018-06-05T11:40:40.285Z,27.27
2018-06-05T11:43:08.236Z,29.63
2018-06-05T11:45:35.757Z,27.57
2018-06-05T11:48:03.142Z,26.17
2018-06-05T11:50:30.593Z,28.00
2018-06-05T11:52:59.622Z,26.10
2018-06-05T11:55:26.996Z,27.63
2018-06-05T11:57:54.400Z,30.13
2018-06-05T12:00:22.036Z,25.77
2018-06-05T12:02:49.553Z,27.27
2018-06-05T12:05:16.984Z,25.23
2018-06-05T12:07:44.436Z,25.40
2018-06-05T12:10:12.584Z,27.63
2018-06-05T12:12:39.988Z,27.07
2018-06-05T12:15:07.590Z,27.03
2018-06-05T12:17:35.020Z,27.20
2018-06-05T12:20:02.674Z,26.37
2018-06-05T12:22:30.084Z,26.30
2018-06-05T12:24:57.747Z,25.77
2018-06-05T12:27:25.245Z,28.07
2018-06-05T12:29:52.608Z,27.50
2018-06-05T12:32:20.916Z,28.03
2018-06-05T12:34:48.649Z,28.27
2018-06-05T12:37:16.023Z,30.27
2018-06-05T12:39:43.658Z,27.20
2018-06-05T12:42:11.198Z,26.17
2018-06-05T12:44:38.665Z,27.43
2018-06-05T12:47:06.080Z,28.33
2018-06-05T12:49:33.448Z,29.67
2018-06-05T12:52:00.932Z,27.63
2018-06-05T12:54:28.718Z,29.37
2018-06-05T12:56:56.201Z,28.13
2018-06-05T12:59:23.579Z,28.80
2018-06-05T13:01:53.548Z,27.47
2018-06-05T13:04:20.960Z,25.57
2018-06-05T13:06:48.583Z,26.77
2018-06-05T13:09:16.236Z,26.80
2018-06-05T13:11:43.875Z,27.33
2018-06-05T13:14:11.223Z,24.10
2018-06-05T13:16:38.689Z,26.47
2018-06-05T13:19:06.057Z,24.93
2018-06-05T13:21:33.404Z,27.33
2018-06-05T13:24:00.948Z,26.33
2018-06-05T13:26:28.617Z,25.20
2018-06-05T13:28:56.052Z,27.10
2018-06-05T13:31:23.505Z,27.17
2018-06-05T13:33:51.122Z,25.23
2018-06-05T13:36:18.627Z,26.67
2018-06-05T13:38:46.420Z,26.37
2018-06-05T13:41:14.472Z,25.87
2018-06-05T13:43:42.975Z,25.90
2018-06-05T13:46:10.472Z,24.67
2018-06-05T13:48:37.901Z,28.90
2018-06-05T13:51:05.315Z,26.60
2018-06-05T13:53:32.781Z,26.07
2018-06-05T13:56:00.305Z,28.30
2018-06-05T13:58:27.884Z,29.00
2018-06-05T14:00:55.268Z,29.07
2018-06-05T14:03:22.820Z,28.77
2018-06-05T14:05:50.216Z,30.50
2018-06-05T14:08:17.606Z,28.00
2018-06-05T14:10:45.066Z,29.67
2018-06-05T14:13:12.425Z,28.43
2018-06-05T14:15:39.828Z,28.87
2018-06-05T14:18:07.547Z,28.93
2018-06-05T14:20:35.009Z,28.60
2018-06-05T14:23:02.465Z,28.20
2018-06-05T14:25:29.946Z,30.63
2018-06-05T14:27:57.356Z,30.77
2018-06-05T14:30:24.948Z,28.83
2018-06-05T14:32:52.417Z,30.80
2018-06-05T14:35:19.808Z,27.50
2018-06-05T14:37:47.268Z,28.93
2018-06-05T14:40:14.770Z,30.73
2018-06-05T14:42:42.208Z,29.57
2018-06-05T14:45:09.679Z,31.77
2018-06-05T14:47:37.073Z,30.13
2018-06-05T14:50:04.488Z,28.63
2018-06-05T14:52:31.929Z,30.10
2018-06-05T14:54:59.445Z,28.37
2018-06-05T14:57:26.964Z,29.15
2018-06-05T14:59:54.390Z,29.53
2018-06-05T15:02:21.945Z,27.87
2018-06-05T15:04:49.359Z,29.17
2018-06-05T15:07:16.872Z,27.50
2018-06-05T15:09:44.252Z,29.23
2018-06-05T15:12:11.802Z,29.77
2018-06-05T15:14:39.304Z,29.43
2018-06-05T15:17:06.731Z,28.40
2018-06-05T15:19:34.276Z,29.43
2018-06-05T15:22:01.712Z,28.47
2018-06-05T15:24:29.238Z,30.93
2018-06-05T15:26:56.636Z,31.10
2018-06-05T15:29:24.099Z,30.67
2018-06-05T15:31:51.512Z,29.67
2018-06-05T15:34:19.269Z,30.57
2018-06-05T15:36:50.642Z,27.90
2018-06-05T15:39:18.040Z,31.40
2018-06-05T15:41:45.724Z,29.40
2018-06-05T15:44:13.139Z,28.80
2018-06-05T15:46:40.541Z,29.23
2018-06-05T15:49:07.978Z,31.47
2018-06-05T15:51:35.540Z,31.87
2018-06-05T15:54:03.177Z,32.07
2018-06-05T15:56:30.577Z,30.43
2018-06-05T15:58:58.059Z,31.57
2018-06-05T16:01:25.599Z,30.30
2018-06-05T16:03:53.134Z,30.90
2018-06-05T16:06:20.512Z,31.57
2018-06-05T16:08:48.064Z,30.57
2018-06-05T16:11:15.564Z,29.87
2018-06-05T16:13:42.989Z,31.70
2018-06-05T16:16:10.895Z,30.53
2018-06-05T16:18:38.265Z,31.73
2018-06-05T16:21:05.690Z,33.37
2018-06-05T16:23:33.146Z,32.07
2018-06-05T16:26:00.730Z,31.67
2018-06-05T16:28:28.251Z,30.13
2018-06-05T16:30:55.607Z,31.63
2018-06-05T16:33:23.865Z,34.37
2018-06-05T16:35:56.131Z,33.00
2018-06-05T16:38:23.545Z,33.07
2018-06-05T16:40:51.049Z,31.90
2018-06-05T16:43:18.680Z,33.10
2018-06-05T16:45:46.148Z,31.33
2018-06-05T16:48:13.617Z,32.13
2018-06-05T16:50:41.041Z,30.97
2018-06-05T16:53:08.473Z,28.77
2018-06-05T16:55:36.061Z,29.23
2018-06-05T16:58:03.471Z,28.67
2018-06-05T17:00:30.900Z,28.23
2018-06-05T17:02:58.814Z,28.60
2018-06-05T17:05:26.357Z,28.63
2018-06-05T17:07:53.765Z,28.90
2018-06-05T17:10:21.206Z,26.60
2018-06-05T17:12:48.626Z,28.63
2018-06-05T17:15:16.047Z,27.57
2018-06-05T17:17:43.409Z,28.27
2018-06-05T17:20:10.817Z,28.60
2018-06-05T17:22:38.239Z,29.43
2018-06-05T17:25:05.709Z,26.10
2018-06-05T17:27:33.443Z,30.87
2018-06-05T17:30:00.892Z,30.03
2018-06-05T17:32:28.317Z,30.33
2018-06-05T17:34:55.907Z,28.43
2018-06-05T17:37:23.533Z,31.70
2018-06-05T17:39:50.972Z,28.90
2018-06-05T17:42:18.353Z,29.67
2018-06-05T17:44:45.845Z,30.77
2018-06-05T17:47:13.241Z,32.23
2018-06-05T17:49:40.653Z,33.47
2018-06-05T17:52:08.057Z,33.53
2018-06-05T17:54:35.487Z,34.33
2018-06-05T17:57:02.932Z,34.67
2018-06-05T17:59:30.613Z,35.33
2018-06-05T18:01:57.997Z,36.03
2018-06-05T18:04:25.480Z,34.37
2018-06-05T18:06:53.077Z,32.73
2018-06-05T18:09:20.750Z,33.57
2018-06-05T18:11:48.230Z,35.03
2018-06-05T18:14:15.817Z,32.57
2018-06-05T18:16:43.210Z,34.17
2018-06-05T18:19:10.647Z,33.97
2018-06-05T18:21:38.210Z,32.87
2018-06-05T18:24:05.757Z,31.40
2018-06-05T18:26:34.150Z,31.70
2018-06-05T18:29:01.576Z,32.70
2018-06-05T18:31:30.104Z,32.20
2018-06-05T18:33:57.476Z,31.17
2018-06-05T18:36:24.906Z,35.00
2018-06-05T18:38:52.280Z,30.43
2018-06-05T18:41:19.716Z,31.30
2018-06-05T18:43:47.126Z,32.90
2018-06-05T18:46:14.666Z,32.83
2018-06-05T18:48:42.033Z,32.57
2018-06-05T18:51:09.475Z,31.83
2018-06-05T18:53:37.009Z,32.30
2018-06-05T18:56:04.503Z,32.53
2018-06-05T18:58:32.102Z,33.03
2018-06-05T19:00:59.643Z,31.80
2018-06-05T19:03:27.449Z,32.30
2018-06-05T19:05:54.912Z,33.30
2018-06-05T19:08:22.385Z,32.30
2018-06-05T19:10:49.849Z,32.17
2018-06-05T19:13:17.450Z,33.10
2018-06-05T19:15:45.265Z,33.73
2018-06-05T19:18:12.908Z,32.03
2018-06-05T19:20:40.353Z,33.23
2018-06-05T19:23:07.893Z,35.17
2018-06-05T19:25:35.656Z,33.97
2018-06-05T19:28:03.365Z,34.20
2018-06-05T19:30:31.038Z,35.80
2018-06-05T19:32:58.501Z,34.07
2018-06-05T19:35:25.943Z,35.57
2018-06-05T19:37:53.526Z,36.43
2018-06-05T19:40:21.005Z,36.67
2018-06-05T19:42:48.561Z,36.47
2018-06-05T19:45:16.060Z,39.43
2018-06-05T19:47:43.818Z,38.47
2018-06-05T19:50:13.124Z,39.17
2018-06-05T19:52:40.610Z,38.73
2018-06-05T19:55:08.004Z,39.33
2018-06-05T19:57:35.402Z,38.17
2018-06-05T20:00:02.900Z,38.77
2018-06-05T20:02:30.395Z,40.30
2018-06-05T20:04:58.028Z,40.63
2018-06-05T20:07:25.469Z,40.90
2018-06-05T20:09:52.946Z,39.57
2018-06-05T20:12:20.476Z,39.47
2018-06-05T20:14:48.017Z,40.93
2018-06-05T20:17:15.409Z,39.03
2018-06-05T20:19:42.846Z,39.27
2018-06-05T20:22:10.677Z,39.57
2018-06-05T20:24:38.311Z,39.20
2018-06-05T20:27:06.600Z,37.43
2018-06-05T20:29:34.141Z,38.97
2018-06-05T20:32:01.682Z,38.23
2018-06-05T20:34:29.360Z,35.53
2018-06-05T20:36:56.919Z,34.47
2018-06-05T20:39:24.449Z,35.40
2018-06-05T20:41:52.698Z,33.83
2018-06-05T20:44:20.320Z,34.17
2018-06-05T20:46:47.977Z,35.07
2018-06-05T20:49:15.573Z,34.30
2018-06-05T20:51:43.150Z,34.37
2018-06-05T20:54:10.686Z,35.47
2018-06-05T20:56:38.234Z,35.07
2018-06-05T20:59:05.704Z,35.17
2018-06-05T21:01:33.405Z,35.27
2018-06-05T21:04:00.934Z,34.10
2018-06-05T21:06:28.570Z,35.27
2018-06-05T21:08:55.961Z,34.73
2018-06-05T21:11:24.466Z,35.70
2018-06-05T21:13:51.806Z,35.93
2018-06-05T21:16:19.225Z,34.53
2018-06-05T21:18:46.749Z,35.67
2018-06-05T21:21:14.231Z,34.03
2018-06-05T21:23:41.697Z,33.87
2018-06-05T21:26:09.124Z,35.53
2018-06-05T21:28:36.652Z,32.57
2018-06-05T21:31:04.321Z,34.23
2018-06-05T21:33:31.965Z,34.70
2018-06-05T21:36:00.329Z,34.97
2018-06-05T21:38:27.828Z,35.43
2018-06-05T21:40:55.295Z,34.17
2018-06-05T21:43:22.765Z,35.27
2018-06-05T21:45:50.237Z,35.53
2018-06-05T21:48:17.737Z,34.73
2018-06-05T21:50:46.115Z,36.27
2018-06-05T21:53:13.501Z,35.77
2018-06-05T21:55:40.904Z,36.33
2018-06-05T21:58:08.379Z,35.60
2018-06-05T22:00:35.885Z,35.87
2018-06-05T22:03:03.377Z,37.53
2018-06-05T22:05:30.831Z,35.07
2018-06-05T22:07:58.901Z,36.73
2018-06-05T22:10:26.338Z,36.63
2018-06-05T22:12:53.951Z,35.87
2018-06-05T22:15:21.585Z,34.80
2018-06-05T22:17:49.039Z,37.93
2018-06-05T22:20:16.532Z,35.37
2018-06-05T22:22:43.966Z,34.23
2018-06-05T22:25:11.381Z,35.90
2018-06-05T22:27:39.124Z,35.30
2018-06-05T22:30:06.604Z,34.73
2018-06-05T22:32:34.296Z,36.53
2018-06-05T22:35:02.027Z,35.37
2018-06-05T22:37:29.669Z,36.67
2018-06-05T22:39:57.097Z,36.80
2018-06-05T22:42:24.554Z,35.93
2018-06-05T22:44:52.020Z,36.17
2018-06-05T22:47:19.642Z,36.90
2018-06-05T22:49:47.112Z,37.67
2018-06-05T22:52:14.752Z,36.43
2018-06-05T22:54:42.261Z,38.07
2018-06-05T22:57:09.669Z,37.87
2018-06-05T22:59:37.328Z,38.90
2018-06-05T23:02:04.867Z,35.83
2018-06-05T23:04:32.361Z,39.50
2018-06-05T23:07:00.273Z,38.90
2018-06-05T23:09:27.849Z,41.00
2018-06-05T23:11:55.536Z,41.27
2018-06-05T23:14:23.173Z,41.03
2018-06-05T23:16:50.718Z,44.90
2018-06-05T23:19:18.356Z,42.80
2018-06-05T23:21:45.865Z,45.03
2018-06-05T23:24:13.522Z,46.30
2018-06-05T23:26:40.989Z,46.70
2018-06-05T23:29:08.530Z,45.67
2018-06-05T23:31:36.069Z,45.17
2018-06-05T23:34:03.741Z,46.20
2018-06-05T23:36:31.229Z,46.40
2018-06-05T23:38:58.933Z,48.63
2018-06-05T23:41:26.456Z,48.27
2018-06-05T23:43:54.129Z,46.70
2018-06-05T23:46:21.601Z,45.83
2018-06-05T23:48:49.245Z,44.20
2018-06-05T23:51:16.712Z,46.27
2018-06-05T23:53:44.304Z,46.83
2018-06-05T23:56:12.018Z,45.27
2018-06-05T23:58:39.508Z,45.20
